Time;durP1;ratioP1;P1;durP2;ratioP2;P2;SDS_P1;SDS_P2;PMS_P1;PMS_P2;Temp;Humidity;BMP_temperature;BMP_pressure;BME280_temperature;BME280_humidity;BME280_pressure;Samples;Min_cycle;Max_cycle;Signal;HPM_P1;HPM_P2
2023/01/20 00:01:14;;;;;;;1.90;1.42;;;;;;;;;;5057486;28;20016;-44
2023/01/20 00:03:40;;;;;;;3.13;2.00;;;;;;;;;;5060577;28;20594;-45
2023/01/20 00:06:07;;;;;;;3.35;1.92;;;;;;;;;;5073564;28;20097;-44
2023/01/20 00:08:33;;;;;;;4.22;2.15;;;;;;;;;;5070127;28;20439;-44
2023/01/20 00:10:59;;;;;;;2.60;1.63;;;;;;;;;;5070431;28;20040;-45
2023/01/20 00:13:25;;;;;;;3.25;1.85;;;;;;;;;;5075415;28;20024;-44
2023/01/20 00:15:50;;;;;;;3.65;1.83;;;;;;;;;;5074024;28;20035;-44
2023/01/20 00:18:16;;;;;;;3.17;2.13;;;;;;;;;;5077282;28;20462;-44
2023/01/20 00:20:42;;;;;;;3.38;1.90;;;;;;;;;;5075286;28;20021;-45
2023/01/20 00:23:08;;;;;;;4.05;2.30;;;;;;;;;;5071691;28;20062;-45
2023/01/20 00:25:35;;;;;;;2.17;1.67;;;;;;;;;;5065745;28;20025;-46
2023/01/20 00:28:01;;;;;;;2.50;1.98;;;;;;;;;;5071611;28;20020;-44
2023/01/20 00:30:27;;;;;;;2.65;2.03;;;;;;;;;;5074867;28;20086;-44
2023/01/20 00:32:53;;;;;;;2.75;1.88;;;;;;;;;;5076241;28;20439;-45
2023/01/20 00:35:19;;;;;;;4.05;2.20;;;;;;;;;;5070606;28;20037;-43
2023/01/20 00:37:45;;;;;;;5.32;2.20;;;;;;;;;;5072584;28;20029;-44
2023/01/20 00:40:11;;;;;;;2.83;1.70;;;;;;;;;;5071014;28;20498;-47
2023/01/20 00:42:37;;;;;;;2.92;2.22;;;;;;;;;;5064389;28;20664;-43
2023/01/20 00:45:04;;;;;;;2.80;1.80;;;;;;;;;;5081437;28;20035;-44
2023/01/20 00:47:30;;;;;;;2.85;1.73;;;;;;;;;;5070493;28;20029;-43
2023/01/20 00:49:55;;;;;;;2.80;2.10;;;;;;;;;;5073463;28;20025;-44
2023/01/20 00:52:22;;;;;;;3.22;2.33;;;;;;;;;;5077593;28;20066;-44
2023/01/20 00:54:47;;;;;;;4.18;2.45;;;;;;;;;;5077251;28;20029;-44
2023/01/20 00:57:13;;;;;;;3.00;2.20;;;;;;;;;;5078309;28;20103;-44
2023/01/20 00:59:39;;;;;;;2.60;1.98;;;;;;;;;;5074576;28;20035;-44
2023/01/20 01:02:05;;;;;;;3.05;1.95;;;;;;;;;;5069953;28;20107;-44
2023/01/20 01:04:31;;;;;;;2.33;1.80;;;;;;;;;;5081758;28;20044;-44
2023/01/20 01:06:57;;;;;;;3.22;2.00;;;;;;;;;;5076136;28;20029;-44
2023/01/20 01:09:23;;;;;;;2.95;2.08;;;;;;;;;;5069791;28;20025;-44
2023/01/20 01:11:49;;;;;;;3.53;2.20;;;;;;;;;;5072069;28;20064;-43
2023/01/20 01:14:16;;;;;;;4.00;1.90;;;;;;;;;;5076778;28;20043;-43
2023/01/20 01:16:42;;;;;;;4.15;2.42;;;;;;;;;;5063878;28;20142;-43
2023/01/20 01:19:08;;;;;;;2.92;1.80;;;;;;;;;;5071993;28;20058;-45
2023/01/20 01:21:34;;;;;;;3.65;1.80;;;;;;;;;;5076315;28;20025;-43
2023/01/20 01:24:00;;;;;;;3.22;1.92;;;;;;;;;;5072127;28;20035;-43
2023/01/20 01:26:26;;;;;;;2.42;2.00;;;;;;;;;;5072794;28;20017;-44
2023/01/20 01:28:52;;;;;;;4.75;2.30;;;;;;;;;;5075261;28;20484;-43
2023/01/20 01:31:20;;;;;;;4.00;2.15;;;;;;;;;;5075034;28;20434;-44
2023/01/20 01:33:46;;;;;;;3.00;2.00;;;;;;;;;;5073644;28;20029;-43
2023/01/20 01:36:13;;;;;;;3.13;2.20;;;;;;;;;;5072354;28;20536;-43
2023/01/20 01:38:39;;;;;;;3.58;2.05;;;;;;;;;;5074050;28;20105;-43
2023/01/20 01:41:05;;;;;;;2.63;2.13;;;;;;;;;;5081523;28;20115;-43
2023/01/20 01:43:33;;;;;;;2.80;2.03;;;;;;;;;;5073307;28;20369;-45
2023/01/20 01:46:00;;;;;;;2.45;1.83;;;;;;;;;;5073730;28;20525;-43
2023/01/20 01:48:43;;;;;;;2.55;1.95;;;;;;;;;;5076676;28;20511;-43
2023/01/20 01:51:27;;;;;;;4.07;2.10;;;;;;;;;;5078948;28;20464;-44
2023/01/20 01:53:54;;;;;;;3.05;2.22;;;;;;;;;;5073547;28;20040;-43
2023/01/20 01:56:21;;;;;;;4.05;2.15;;;;;;;;;;5074830;28;20029;-44
2023/01/20 01:58:48;;;;;;;3.20;2.00;;;;;;;;;;5074450;28;20028;-43
2023/01/20 02:01:15;;;;;;;3.55;2.00;;;;;;;;;;5074702;28;20027;-43
2023/01/20 02:03:48;;;;;;;3.67;2.45;;;;;;;;;;5074299;28;20027;-46
2023/01/20 02:06:14;;;;;;;3.08;2.20;;;;;;;;;;5077009;28;20025;-46
2023/01/20 02:08:41;;;;;;;3.10;1.92;;;;;;;;;;5069797;28;20021;-44
2023/01/20 02:11:07;;;;;;;2.67;1.92;;;;;;;;;;5079444;28;20024;-44
2023/01/20 02:13:34;;;;;;;3.05;2.10;;;;;;;;;;5079410;28;20021;-45
2023/01/20 02:16:03;;;;;;;4.82;2.30;;;;;;;;;;5074239;28;20055;-45
2023/01/20 02:18:43;;;;;;;3.40;2.08;;;;;;;;;;5072767;28;20032;-44
2023/01/20 02:21:26;;;;;;;2.75;2.00;;;;;;;;;;5074945;28;20024;-45
2023/01/20 02:23:52;;;;;;;;;;;;;;;;;;5073671;28;20401;-45
2023/01/20 02:26:27;;;;;;;3.25;1.73;;;;;;;;;;5073287;28;19947;-43
2023/01/20 02:29:12;;;;;;;3.25;2.03;;;;;;;;;;5083610;28;20070;-44
2023/01/20 02:32:05;;;;;;;2.83;1.92;;;;;;;;;;5066847;28;20028;-44
2023/01/20 02:34:45;;;;;;;3.25;2.25;;;;;;;;;;5071780;28;20020;-44
2023/01/20 02:37:16;;;;;;;2.72;1.92;;;;;;;;;;5077509;28;20099;-44
2023/01/20 02:39:45;;;;;;;2.57;1.83;;;;;;;;;;5073181;28;20025;-44
2023/01/20 02:42:14;;;;;;;3.22;2.15;;;;;;;;;;5068105;28;20448;-45
2023/01/20 02:44:46;;;;;;;2.70;1.77;;;;;;;;;;5072447;28;20097;-45
2023/01/20 02:47:12;;;;;;;;;;;;;;;;;;5073917;28;20021;-44
2023/01/20 02:49:47;;;;;;;4.18;2.00;;;;;;;;;;5072504;28;19960;-44
2023/01/20 02:52:25;;;;;;;3.58;2.58;;;;;;;;;;5069157;28;20095;-45
2023/01/20 02:54:53;;;;;;;2.40;1.70;;;;;;;;;;5070697;28;20031;-44
2023/01/20 02:57:23;;;;;;;4.03;2.08;;;;;;;;;;5078870;28;20379;-44
2023/01/20 02:59:52;;;;;;;2.95;1.90;;;;;;;;;;5075073;28;20024;-45
2023/01/20 03:02:20;;;;;;;2.42;1.90;;;;;;;;;;5080013;28;20025;-43
2023/01/20 03:04:54;;;;;;;3.28;2.15;;;;;;;;;;5077256;28;20131;-44
2023/01/20 03:07:22;;;;;;;3.72;2.28;;;;;;;;;;5068098;28;20082;-44
2023/01/20 03:09:50;;;;;;;3.92;2.50;;;;;;;;;;5077513;28;20492;-44
2023/01/20 03:12:21;;;;;;;2.35;1.77;;;;;;;;;;5080015;28;20482;-44
2023/01/20 03:14:47;;;;;;;3.33;2.17;;;;;;;;;;5073073;28;20033;-44
2023/01/20 03:17:13;;;;;;;3.15;1.95;;;;;;;;;;5066982;28;20032;-43
2023/01/20 03:19:39;;;;;;;3.38;2.00;;;;;;;;;;5072984;28;20021;-46
2023/01/20 03:22:05;;;;;;;3.08;1.90;;;;;;;;;;5076727;28;20024;-46
2023/01/20 03:24:32;;;;;;;3.72;1.70;;;;;;;;;;5080053;28;20119;-43
2023/01/20 03:26:58;;;;;;;3.10;1.88;;;;;;;;;;5073821;28;20024;-44
2023/01/20 03:29:24;;;;;;;3.00;1.90;;;;;;;;;;5068778;28;20161;-44
2023/01/20 03:31:52;;;;;;;3.00;2.00;;;;;;;;;;5074206;28;20060;-43
2023/01/20 03:34:20;;;;;;;2.70;2.05;;;;;;;;;;5068282;28;20377;-43
2023/01/20 03:36:47;;;;;;;2.70;1.83;;;;;;;;;;5072586;28;20056;-43
2023/01/20 03:39:13;;;;;;;3.53;1.83;;;;;;;;;;5079162;28;20502;-43
2023/01/20 03:41:58;;;;;;;3.63;2.35;;;;;;;;;;5073193;28;20555;-43
2023/01/20 03:44:26;;;;;;;2.80;1.92;;;;;;;;;;5071382;28;20040;-43
2023/01/20 03:47:02;;;;;;;2.45;1.88;;;;;;;;;;5074450;28;20164;-44
2023/01/20 03:49:33;;;;;;;3.92;2.20;;;;;;;;;;5074388;28;20020;-43
2023/01/20 03:51:58;;;;;;;4.65;2.22;;;;;;;;;;5074194;28;20033;-44
2023/01/20 03:54:27;;;;;;;2.67;2.03;;;;;;;;;;5070989;28;20035;-43
2023/01/20 03:56:53;;;;;;;2.47;1.95;;;;;;;;;;5072289;28;20366;-43
2023/01/20 03:59:20;;;;;;;2.85;1.83;;;;;;;;;;5072835;28;20065;-44
2023/01/20 04:01:46;;;;;;;2.80;2.05;;;;;;;;;;5072598;28;20023;-45
2023/01/20 04:04:14;;;;;;;3.67;2.10;;;;;;;;;;5071405;28;20049;-43
2023/01/20 04:06:42;;;;;;;2.22;1.98;;;;;;;;;;5068324;28;20101;-43
2023/01/20 04:09:10;;;;;;;3.95;2.35;;;;;;;;;;5079145;28;20028;-43
2023/01/20 04:11:36;;;;;;;2.83;2.00;;;;;;;;;;5077183;28;20076;-44
2023/01/20 04:14:02;;;;;;;2.40;1.60;;;;;;;;;;5071122;28;20468;-43
2023/01/20 04:16:28;;;;;;;2.97;1.83;;;;;;;;;;5066385;28;20017;-45
2023/01/20 04:18:54;;;;;;;2.88;2.20;;;;;;;;;;5077738;28;20031;-46
2023/01/20 04:21:26;;;;;;;2.97;1.95;;;;;;;;;;5080389;28;20020;-44
2023/01/20 04:23:52;;;;;;;;;;;;;;;;;;5071179;28;20033;-45
2023/01/20 04:26:18;;;;;;;3.42;1.65;;;;;;;;;;5077449;28;20273;-43
2023/01/20 04:28:44;;;;;;;2.60;1.90;;;;;;;;;;5076229;28;20114;-43
2023/01/20 04:31:10;;;;;;;2.83;1.90;;;;;;;;;;5075785;28;20492;-44
2023/01/20 04:33:37;;;;;;;4.18;2.47;;;;;;;;;;5078136;28;20032;-43
2023/01/20 04:36:03;;;;;;;2.60;1.90;;;;;;;;;;5079179;28;20036;-44
2023/01/20 04:38:29;;;;;;;2.08;1.73;;;;;;;;;;5066547;28;20043;-43
2023/01/20 04:40:55;;;;;;;3.95;2.00;;;;;;;;;;5067554;28;20469;-43
2023/01/20 04:43:21;;;;;;;2.92;1.60;;;;;;;;;;5070553;28;20100;-43
2023/01/20 04:45:47;;;;;;;2.72;1.88;;;;;;;;;;5075412;28;20028;-44
2023/01/20 04:48:13;;;;;;;2.28;1.60;;;;;;;;;;5080461;28;20435;-43
2023/01/20 04:50:39;;;;;;;2.72;1.55;;;;;;;;;;5074384;28;20096;-44
2023/01/20 04:53:06;;;;;;;2.33;1.65;;;;;;;;;;5071336;28;20028;-45
2023/01/20 04:55:32;;;;;;;3.90;2.15;;;;;;;;;;5070382;28;20036;-44
2023/01/20 04:57:58;;;;;;;3.42;2.08;;;;;;;;;;5069834;28;20094;-43
2023/01/20 05:00:24;;;;;;;1.92;1.65;;;;;;;;;;5079821;28;20032;-44
2023/01/20 05:02:50;;;;;;;2.55;1.63;;;;;;;;;;5073118;28;20028;-44
2023/01/20 05:05:16;;;;;;;2.20;1.67;;;;;;;;;;5092934;28;20519;-44
2023/01/20 05:07:42;;;;;;;2.88;1.98;;;;;;;;;;5097668;28;20028;-44
2023/01/20 05:10:09;;;;;;;2.17;1.52;;;;;;;;;;5101377;28;20045;-43
2023/01/20 05:12:35;;;;;;;2.30;1.27;;;;;;;;;;5090491;28;20371;-44
2023/01/20 05:15:01;;;;;;;2.47;1.50;;;;;;;;;;5085055;28;20476;-44
2023/01/20 05:17:27;;;;;;;2.80;1.63;;;;;;;;;;5092238;28;20032;-43
2023/01/20 05:19:53;;;;;;;2.28;1.80;;;;;;;;;;5091246;28;20024;-43
2023/01/20 05:22:19;;;;;;;2.22;1.55;;;;;;;;;;5094665;28;20116;-43
2023/01/20 05:24:45;;;;;;;1.85;1.40;;;;;;;;;;5072452;28;20348;-44
2023/01/20 05:27:11;;;;;;;1.95;1.27;;;;;;;;;;5091438;28;20095;-43
2023/01/20 05:29:37;;;;;;;2.70;1.40;;;;;;;;;;5085781;28;20016;-44
2023/01/20 05:32:03;;;;;;;2.60;1.73;;;;;;;;;;5091294;28;20484;-45
2023/01/20 05:34:29;;;;;;;1.95;1.40;;;;;;;;;;5099208;28;20371;-43
2023/01/20 05:36:55;;;;;;;3.47;1.60;;;;;;;;;;5096845;28;20039;-45
2023/01/20 05:39:21;;;;;;;1.70;1.40;;;;;;;;;;5099547;28;20461;-43
2023/01/20 05:41:47;;;;;;;3.15;1.58;;;;;;;;;;5091207;28;20048;-43
2023/01/20 05:44:13;;;;;;;1.92;1.38;;;;;;;;;;5095949;28;20113;-44
2023/01/20 05:46:39;;;;;;;2.08;1.40;;;;;;;;;;5089056;28;20016;-44
2023/01/20 05:49:05;;;;;;;2.40;1.40;;;;;;;;;;5095575;28;20124;-44
2023/01/20 05:51:31;;;;;;;2.67;1.38;;;;;;;;;;5090442;28;20072;-44
2023/01/20 05:53:57;;;;;;;1.98;1.30;;;;;;;;;;5090470;28;20042;-43
2023/01/20 05:56:23;;;;;;;1.95;1.45;;;;;;;;;;5091452;28;20031;-43
2023/01/20 05:58:53;;;;;;;2.28;1.55;;;;;;;;;;5092950;28;20027;-43
2023/01/20 06:01:19;;;;;;;2.15;1.48;;;;;;;;;;5090069;28;20488;-44
2023/01/20 06:03:45;;;;;;;2.05;1.55;;;;;;;;;;5088270;28;20068;-43
2023/01/20 06:06:14;;;;;;;2.00;1.52;;;;;;;;;;5075169;28;20038;-43
2023/01/20 06:08:40;;;;;;;2.53;1.65;;;;;;;;;;5077314;28;20024;-43
2023/01/20 06:11:06;;;;;;;2.50;1.85;;;;;;;;;;5070453;28;20028;-44
2023/01/20 06:13:34;;;;;;;1.90;1.35;;;;;;;;;;5072626;28;20036;-44
2023/01/20 06:16:00;;;;;;;3.55;2.10;;;;;;;;;;5073559;28;20025;-44
2023/01/20 06:18:26;;;;;;;1.45;1.35;;;;;;;;;;5073237;28;20040;-44
2023/01/20 06:20:52;;;;;;;3.40;1.70;;;;;;;;;;5072879;28;20024;-43
2023/01/20 06:23:18;;;;;;;2.47;1.65;;;;;;;;;;5075587;28;20017;-43
2023/01/20 06:25:44;;;;;;;2.67;1.42;;;;;;;;;;5072572;28;20033;-45
2023/01/20 06:28:10;;;;;;;2.63;1.25;;;;;;;;;;5074246;28;20032;-47
2023/01/20 06:30:37;;;;;;;1.98;1.30;;;;;;;;;;5071292;28;20495;-44
2023/01/20 06:33:09;;;;;;;1.80;1.58;;;;;;;;;;5080261;28;20427;-44
2023/01/20 06:35:35;;;;;;;4.78;1.90;;;;;;;;;;5072624;28;20029;-44
2023/01/20 06:38:01;;;;;;;8.55;2.05;;;;;;;;;;5074076;28;20036;-44
2023/01/20 06:40:27;;;;;;;3.40;1.50;;;;;;;;;;5072364;28;20036;-44
2023/01/20 06:42:53;;;;;;;3.08;1.40;;;;;;;;;;5080367;28;20024;-43
2023/01/20 06:45:19;;;;;;;3.08;1.50;;;;;;;;;;5072007;28;20123;-44
2023/01/20 06:47:48;;;;;;;3.03;1.10;;;;;;;;;;5052610;28;20098;-43
2023/01/20 06:50:15;;;;;;;3.90;1.50;;;;;;;;;;5075539;28;20024;-44
2023/01/20 06:52:41;;;;;;;3.60;1.30;;;;;;;;;;5070814;28;21342;-43
2023/01/20 06:55:07;;;;;;;7.03;1.67;;;;;;;;;;5083746;28;20032;-44
2023/01/20 06:57:33;;;;;;;4.28;1.42;;;;;;;;;;5072486;28;20020;-44
2023/01/20 06:59:59;;;;;;;4.70;1.40;;;;;;;;;;5080179;28;20397;-46
2023/01/20 07:02:25;;;;;;;3.70;1.42;;;;;;;;;;5077676;28;20089;-49
2023/01/20 07:04:52;;;;;;;3.53;1.85;;;;;;;;;;5076585;28;20049;-43
2023/01/20 07:07:18;;;;;;;3.50;1.40;;;;;;;;;;5073283;28;20051;-44
2023/01/20 07:09:44;;;;;;;2.60;1.33;;;;;;;;;;5072408;28;20024;-45
2023/01/20 07:12:10;;;;;;;2.30;1.40;;;;;;;;;;5068308;28;20359;-46
2023/01/20 07:14:35;;;;;;;2.53;1.60;;;;;;;;;;5072370;28;20048;-43
2023/01/20 07:17:01;;;;;;;3.42;1.30;;;;;;;;;;5073327;28;20054;-43
2023/01/20 07:19:27;;;;;;;2.50;1.55;;;;;;;;;;5072090;28;20021;-43
2023/01/20 07:21:53;;;;;;;2.22;1.20;;;;;;;;;;5074654;28;20025;-43
2023/01/20 07:24:19;;;;;;;1.42;1.05;;;;;;;;;;5073142;28;20040;-45
2023/01/20 07:26:45;;;;;;;2.65;1.67;;;;;;;;;;5074962;28;20090;-43
2023/01/20 07:29:11;;;;;;;2.22;1.27;;;;;;;;;;5064175;28;20032;-43
2023/01/20 07:31:39;;;;;;;3.15;1.45;;;;;;;;;;5072501;28;20381;-43
2023/01/20 07:34:05;;;;;;;2.33;1.50;;;;;;;;;;5055194;28;20075;-44
2023/01/20 07:36:31;;;;;;;3.70;1.45;;;;;;;;;;5072052;28;20032;-43
2023/01/20 07:38:57;;;;;;;5.72;1.42;;;;;;;;;;5073657;28;20028;-41
2023/01/20 07:41:23;;;;;;;3.20;1.38;;;;;;;;;;5075908;28;20078;-41
2023/01/20 07:43:50;;;;;;;3.92;1.45;;;;;;;;;;5074965;28;20386;-43
2023/01/20 07:46:16;;;;;;;8.60;1.67;;;;;;;;;;5062645;28;20354;-42
2023/01/20 07:48:42;;;;;;;3.08;1.20;;;;;;;;;;5067445;28;20029;-44
2023/01/20 07:51:09;;;;;;;2.95;1.50;;;;;;;;;;5067029;28;20041;-42
2023/01/20 07:53:40;;;;;;;6.57;2.63;;;;;;;;;;5069675;28;20489;-43
2023/01/20 07:56:16;;;;;;;3.95;1.35;;;;;;;;;;5070593;28;20127;-45
2023/01/20 07:58:46;;;;;;;5.75;1.50;;;;;;;;;;5056678;28;20382;-42
2023/01/20 08:01:13;;;;;;;4.50;1.17;;;;;;;;;;5072134;28;20107;-42
2023/01/20 08:03:39;;;;;;;4.28;1.33;;;;;;;;;;5066472;28;20128;-42
2023/01/20 08:06:07;;;;;;;3.05;1.27;;;;;;;;;;5073901;28;20765;-42
2023/01/20 08:08:33;;;;;;;2.72;1.38;;;;;;;;;;5069532;28;20464;-41
2023/01/20 08:11:00;;;;;;;3.53;1.10;;;;;;;;;;5073166;28;20036;-42
2023/01/20 08:13:26;;;;;;;4.28;1.52;;;;;;;;;;5070119;28;20056;-42
2023/01/20 08:15:52;;;;;;;3.47;1.50;;;;;;;;;;5064933;28;20496;-41
2023/01/20 08:18:18;;;;;;;7.03;2.13;;;;;;;;;;5071682;28;20033;-42
2023/01/20 08:20:44;;;;;;;3.38;1.73;;;;;;;;;;5070621;28;20037;-42
2023/01/20 08:23:10;;;;;;;3.85;1.45;;;;;;;;;;5068936;28;20121;-42
2023/01/20 08:25:36;;;;;;;3.72;1.95;;;;;;;;;;5064730;28;20051;-43
2023/01/20 08:28:01;;;;;;;2.55;1.20;;;;;;;;;;5070650;28;20070;-47
2023/01/20 08:30:27;;;;;;;2.00;1.40;;;;;;;;;;5066535;28;20378;-44
2023/01/20 08:32:54;;;;;;;3.63;1.40;;;;;;;;;;5070670;28;20024;-42
2023/01/20 08:35:19;;;;;;;2.85;1.42;;;;;;;;;;5070756;28;20032;-43
2023/01/20 08:37:45;;;;;;;2.03;1.13;;;;;;;;;;5078063;28;20031;-46
2023/01/20 08:40:12;;;;;;;2.42;1.50;;;;;;;;;;5070713;28;20036;-45
2023/01/20 08:42:38;;;;;;;3.45;1.23;;;;;;;;;;5068713;28;20032;-45
2023/01/20 08:45:05;;;;;;;2.95;1.73;;;;;;;;;;5072078;28;20432;-45
2023/01/20 08:47:31;;;;;;;2.00;1.30;;;;;;;;;;5065718;28;20052;-44
2023/01/20 08:49:57;;;;;;;2.72;1.20;;;;;;;;;;5074188;28;20558;-45
2023/01/20 08:52:23;;;;;;;2.15;1.20;;;;;;;;;;5073230;28;20028;-45
2023/01/20 08:54:52;;;;;;;3.83;1.80;;;;;;;;;;5079065;28;20032;-44
2023/01/20 08:57:18;;;;;;;3.65;1.58;;;;;;;;;;5085809;28;20032;-44
2023/01/20 08:59:45;;;;;;;2.65;1.10;;;;;;;;;;5075761;28;20029;-42
2023/01/20 09:02:11;;;;;;;3.22;1.90;;;;;;;;;;5068565;28;20036;-44
2023/01/20 09:04:37;;;;;;;2.47;1.30;;;;;;;;;;5067985;28;20083;-45
2023/01/20 09:07:04;;;;;;;3.08;1.63;;;;;;;;;;5070442;28;20052;-43
2023/01/20 09:09:30;;;;;;;2.83;1.40;;;;;;;;;;5073223;28;20029;-42
2023/01/20 09:11:56;;;;;;;2.03;1.08;;;;;;;;;;5072185;28;20036;-44
2023/01/20 09:14:23;;;;;;;4.32;1.30;;;;;;;;;;5075816;28;20036;-45
2023/01/20 09:16:49;;;;;;;1.95;1.20;;;;;;;;;;5068945;28;20020;-42
2023/01/20 09:19:15;;;;;;;2.15;1.60;;;;;;;;;;5074500;28;21335;-44
2023/01/20 09:21:42;;;;;;;2.15;1.48;;;;;;;;;;5077077;28;20051;-45
2023/01/20 09:24:08;;;;;;;2.97;1.27;;;;;;;;;;5074727;28;20024;-43
2023/01/20 09:26:40;;;;;;;3.05;1.17;;;;;;;;;;5071609;28;20020;-43
2023/01/20 09:29:13;;;;;;;1.63;1.10;;;;;;;;;;5075402;28;20103;-41
2023/01/20 09:31:43;;;;;;;1.65;1.20;;;;;;;;;;5072489;28;20033;-44
2023/01/20 09:34:09;;;;;;;2.95;1.50;;;;;;;;;;5065758;28;20035;-44
2023/01/20 09:36:35;;;;;;;1.98;1.20;;;;;;;;;;5074547;28;20041;-45
2023/01/20 09:44:34;;;;;;;3.70;1.40;;;;;;;;;;5070680;28;20071;-44
2023/01/20 09:47:29;;;;;;;1.80;1.50;;;;;;;;;;5078455;28;20049;-44
2023/01/20 09:53:05;;;;;;;3.85;1.45;;;;;;;;;;5077155;28;20028;-43
2023/01/20 09:55:31;;;;;;;;;;;;;;;;;;5076673;28;20032;-43
2023/01/20 09:58:15;;;;;;;2.55;1.58;;;;;;;;;;5073607;28;19919;-42
2023/01/20 10:00:44;;;;;;;3.20;1.50;;;;;;;;;;5071986;28;20056;-42
2023/01/20 10:03:35;;;;;;;1.50;1.23;;;;;;;;;;5081855;28;20051;-42
2023/01/20 10:06:04;;;;;;;2.47;1.20;;;;;;;;;;5032039;28;20045;-44
2023/01/20 10:08:35;;;;;;;2.50;1.25;;;;;;;;;;5073107;28;20024;-42
2023/01/20 10:11:07;;;;;;;1.25;1.10;;;;;;;;;;5078233;28;20037;-45
2023/01/20 10:13:37;;;;;;;3.00;1.17;;;;;;;;;;5073368;28;20055;-43
2023/01/20 10:16:06;;;;;;;3.92;1.70;;;;;;;;;;5074393;28;20048;-43
2023/01/20 10:18:37;;;;;;;3.38;1.48;;;;;;;;;;5072439;28;20107;-42
2023/01/20 10:21:14;;;;;;;4.83;1.40;;;;;;;;;;5080017;28;20094;-42
2023/01/20 10:23:51;;;;;;;2.67;1.30;;;;;;;;;;5075103;28;20657;-42
2023/01/20 10:26:21;;;;;;;2.42;1.30;;;;;;;;;;5066290;28;20472;-41
2023/01/20 10:28:52;;;;;;;5.22;1.33;;;;;;;;;;5079136;28;20028;-43
2023/01/20 10:31:21;;;;;;;2.13;1.10;;;;;;;;;;5076339;28;20111;-43
2023/01/20 10:33:47;;;;;;;4.78;2.35;;;;;;;;;;5074591;28;20297;-41
2023/01/20 10:36:22;;;;;;;2.28;1.50;;;;;;;;;;5073354;28;20021;-42
2023/01/20 10:39:12;;;;;;;1.88;1.65;;;;;;;;;;5076088;28;20024;-44
2023/01/20 10:41:41;;;;;;;2.20;1.27;;;;;;;;;;5060757;28;20055;-43
2023/01/20 10:44:11;;;;;;;2.50;1.35;;;;;;;;;;5075570;28;20028;-43
2023/01/20 10:46:37;;;;;;;1.70;1.00;;;;;;;;;;5080107;28;20108;-42
2023/01/20 10:49:24;;;;;;;2.03;1.15;;;;;;;;;;5073243;28;20108;-41
2023/01/20 10:52:05;;;;;;;2.10;1.40;;;;;;;;;;5072916;28;20024;-42
2023/01/20 10:54:54;;;;;;;1.33;1.00;;;;;;;;;;5075053;28;20039;-41
2023/01/20 10:57:22;;;;;;;1.85;1.10;;;;;;;;;;5066069;28;20044;-42
2023/01/20 10:59:53;;;;;;;1.52;1.00;;;;;;;;;;5072806;28;20053;-42
2023/01/20 11:02:22;;;;;;;2.47;1.15;;;;;;;;;;5077873;28;20028;-41
2023/01/20 11:04:52;;;;;;;3.53;1.15;;;;;;;;;;5088642;27;20105;-42
2023/01/20 11:07:18;;;;;;;2.53;1.65;;;;;;;;;;5092948;28;20380;-42
2023/01/20 11:09:46;;;;;;;1.30;1.05;;;;;;;;;;5096655;28;20020;-42
2023/01/20 11:12:15;;;;;;;4.25;1.75;;;;;;;;;;5089769;28;20095;-41
2023/01/20 11:14:41;;;;;;;2.25;1.30;;;;;;;;;;5093480;28;20110;-42
2023/01/20 11:17:12;;;;;;;3.75;1.08;;;;;;;;;;5085976;28;20445;-42
2023/01/20 11:19:46;;;;;;;1.85;1.23;;;;;;;;;;5100790;28;20275;-41
2023/01/20 11:22:13;;;;;;;1.67;1.20;;;;;;;;;;5091657;28;20040;-42
2023/01/20 11:24:42;;;;;;;1.85;0.90;;;;;;;;;;5096183;28;20685;-43
2023/01/20 11:27:23;;;;;;;1.60;1.15;;;;;;;;;;5089603;28;20031;-42
2023/01/20 11:29:52;;;;;;;1.75;0.90;;;;;;;;;;5091856;28;20406;-43
2023/01/20 11:32:23;;;;;;;1.42;1.00;;;;;;;;;;5094545;28;20020;-42
2023/01/20 11:34:49;;;;;;;2.05;1.23;;;;;;;;;;5093583;28;20047;-42
2023/01/20 11:37:17;;;;;;;2.35;1.10;;;;;;;;;;5100374;28;20027;-42
2023/01/20 11:39:43;;;;;;;2.17;0.95;;;;;;;;;;5098669;28;20024;-42
2023/01/20 11:42:11;;;;;;;1.33;1.00;;;;;;;;;;5089627;28;20030;-42
2023/01/20 11:44:44;;;;;;;1.90;1.10;;;;;;;;;;5094959;28;20577;-43
2023/01/20 11:47:24;;;;;;;0.93;0.80;;;;;;;;;;5099758;28;20533;-42
2023/01/20 11:50:08;;;;;;;1.15;0.95;;;;;;;;;;5091037;28;20020;-42
2023/01/20 11:52:34;;;;;;;1.92;1.23;;;;;;;;;;5096846;28;20052;-44
2023/01/20 11:55:14;;;;;;;4.43;1.27;;;;;;;;;;5094763;28;20070;-42
2023/01/20 11:57:45;;;;;;;1.95;0.90;;;;;;;;;;5095150;28;20615;-42
2023/01/20 12:00:34;;;;;;;6.15;1.20;;;;;;;;;;5094273;28;20428;-40
2023/01/20 12:03:09;;;;;;;1.92;1.23;;;;;;;;;;5082015;28;20070;-41
2023/01/20 12:05:42;;;;;;;2.80;1.10;;;;;;;;;;5094547;27;20508;-41
2023/01/20 12:08:16;;;;;;;2.45;1.00;;;;;;;;;;5099583;28;20028;-41
2023/01/20 12:10:42;;;;;;;1.48;0.93;;;;;;;;;;5094750;28;20027;-39
2023/01/20 12:16:27;;;;;;;2.00;0.93;;;;;;;;;;5046143;28;20042;-42
2023/01/20 12:18:57;;;;;;;6.65;1.13;;;;;;;;;;5091368;28;20028;-42
2023/01/20 12:21:27;;;;;;;1.60;0.90;;;;;;;;;;5094809;28;20024;-43
2023/01/20 12:24:01;;;;;;;2.42;1.10;;;;;;;;;;5086223;28;20032;-43
2023/01/20 12:26:27;;;;;;;2.10;1.10;;;;;;;;;;5088756;28;20218;-43
2023/01/20 12:28:53;;;;;;;1.35;1.02;;;;;;;;;;5099563;28;20020;-43
2023/01/20 12:31:22;;;;;;;1.70;1.00;;;;;;;;;;5089894;28;20058;-43
2023/01/20 12:34:00;;;;;;;2.78;1.05;;;;;;;;;;5093821;28;20039;-43
2023/01/20 12:36:27;;;;;;;3.22;1.20;;;;;;;;;;5093187;28;20039;-43
2023/01/20 12:38:53;;;;;;;1.92;0.98;;;;;;;;;;5094232;28;20020;-43
2023/01/20 12:41:42;;;;;;;1.50;0.82;;;;;;;;;;5093605;28;20024;-43
2023/01/20 12:44:28;;;;;;;3.03;1.13;;;;;;;;;;5075922;28;20107;-43
2023/01/20 12:47:16;;;;;;;4.43;1.10;;;;;;;;;;5099742;28;20024;-46
2023/01/20 12:49:55;;;;;;;3.13;1.00;;;;;;;;;;5097178;28;20124;-43
2023/01/20 12:52:27;;;;;;;2.30;0.90;;;;;;;;;;5092680;28;20020;-43
2023/01/20 12:55:11;;;;;;;2.38;1.10;;;;;;;;;;5089817;28;20047;-43
2023/01/20 12:57:37;;;;;;;1.35;0.80;;;;;;;;;;5089908;28;20482;-44
2023/01/20 13:00:22;;;;;;;2.78;1.35;;;;;;;;;;5093205;28;20059;-43
2023/01/20 13:03:00;;;;;;;3.10;1.20;;;;;;;;;;5097969;28;20052;-43
2023/01/20 13:05:44;;;;;;;2.00;1.00;;;;;;;;;;5067638;28;20055;-44
2023/01/20 13:08:22;;;;;;;2.20;1.20;;;;;;;;;;5068632;28;20058;-44
2023/01/20 13:10:56;;;;;;;1.67;0.90;;;;;;;;;;5068266;28;20032;-43
2023/01/20 13:13:28;;;;;;;1.65;0.93;;;;;;;;;;5055340;28;20497;-44
2023/01/20 13:15:59;;;;;;;2.93;1.00;;;;;;;;;;5067924;28;20020;-45
2023/01/20 13:18:28;;;;;;;1.50;1.23;;;;;;;;;;5068664;28;20269;-43
2023/01/20 13:20:55;;;;;;;1.08;0.80;;;;;;;;;;5071049;28;20035;-43
2023/01/20 13:23:26;;;;;;;2.03;1.08;;;;;;;;;;5067410;28;20017;-43
2023/01/20 13:25:52;;;;;;;0.98;0.75;;;;;;;;;;5052718;28;20116;-43
2023/01/20 13:28:19;;;;;;;2.15;1.05;;;;;;;;;;5067407;28;20032;-43
2023/01/20 13:30:49;;;;;;;3.90;1.23;;;;;;;;;;5064366;28;20047;-43
2023/01/20 13:33:33;;;;;;;2.75;0.90;;;;;;;;;;5057909;28;20112;-43
2023/01/20 13:36:17;;;;;;;1.65;1.10;;;;;;;;;;5053815;28;20435;-42
2023/01/20 13:38:43;;;;;;;2.78;0.90;;;;;;;;;;5071649;28;20517;-43
2023/01/20 13:41:10;;;;;;;2.67;1.05;;;;;;;;;;5068080;28;20478;-42
2023/01/20 13:43:45;;;;;;;5.95;1.70;;;;;;;;;;5059359;28;20081;-42
2023/01/20 13:46:13;;;;;;;2.92;1.30;;;;;;;;;;5073864;28;20033;-42
2023/01/20 13:48:43;;;;;;;3.20;1.00;;;;;;;;;;5057534;28;20504;-42
2023/01/20 13:51:16;;;;;;;1.75;0.90;;;;;;;;;;5064917;28;20112;-44
2023/01/20 13:53:42;;;;;;;2.47;1.58;;;;;;;;;;5059505;28;20044;-42
2023/01/20 13:56:27;;;;;;;2.53;1.08;;;;;;;;;;5070532;28;20028;-43
2023/01/20 13:58:54;;;;;;;2.05;1.10;;;;;;;;;;5072599;28;20037;-43
2023/01/20 14:01:20;;;;;;;4.15;1.20;;;;;;;;;;5066770;28;20031;-43
2023/01/20 14:04:01;;;;;;;2.10;1.10;;;;;;;;;;5068318;27;20061;-42
2023/01/20 14:06:27;;;;;;;4.28;1.48;;;;;;;;;;5078130;28;20037;-44
2023/01/20 14:08:53;;;;;;;2.90;1.40;;;;;;;;;;5077772;28;20081;-46
2023/01/20 14:11:24;;;;;;;3.97;1.27;;;;;;;;;;5073733;28;20024;-45
2023/01/20 14:14:00;;;;;;;3.45;1.45;;;;;;;;;;5075978;28;20032;-49
2023/01/20 14:16:38;;;;;;;3.55;1.38;;;;;;;;;;5080258;28;20029;-48
2023/01/20 14:19:20;;;;;;;2.53;1.17;;;;;;;;;;5073254;28;20019;-45
2023/01/20 14:21:50;;;;;;;2.83;1.42;;;;;;;;;;5077374;28;20028;-44
2023/01/20 14:24:28;;;;;;;2.35;1.33;;;;;;;;;;5077137;28;20024;-45
2023/01/20 14:27:13;;;;;;;2.80;1.25;;;;;;;;;;5077526;28;20024;-46
2023/01/20 14:29:39;;;;;;;2.25;1.20;;;;;;;;;;5075773;28;20276;-45
2023/01/20 14:32:34;;;;;;;5.55;1.95;;;;;;;;;;5076565;28;20032;-47
2023/01/20 14:35:00;;;;;;;3.15;1.63;;;;;;;;;;5059908;28;20048;-45
2023/01/20 14:37:31;;;;;;;2.50;1.30;;;;;;;;;;5074109;28;20020;-45
2023/01/20 14:39:59;;;;;;;2.75;1.20;;;;;;;;;;5076824;28;20020;-44
2023/01/20 14:42:26;;;;;;;1.98;1.20;;;;;;;;;;5075951;28;20065;-44
2023/01/20 14:44:53;;;;;;;2.70;1.10;;;;;;;;;;5073966;28;20401;-46
2023/01/20 14:47:21;;;;;;;2.67;1.15;;;;;;;;;;5070050;28;20025;-44
2023/01/20 14:49:48;;;;;;;2.10;1.17;;;;;;;;;;5080868;28;20021;-43
2023/01/20 14:52:20;;;;;;;2.75;1.45;;;;;;;;;;5077359;28;20863;-45
2023/01/20 14:54:48;;;;;;;4.65;1.10;;;;;;;;;;5076345;28;20039;-44
2023/01/20 14:57:21;;;;;;;2.58;1.17;;;;;;;;;;5076996;28;20027;-44
2023/01/20 14:59:58;;;;;;;2.38;1.00;;;;;;;;;;5071028;28;20031;-44
2023/01/20 15:02:27;;;;;;;4.18;1.50;;;;;;;;;;5076361;28;20025;-44
2023/01/20 15:04:54;;;;;;;4.82;1.52;;;;;;;;;;5075184;28;20058;-44
2023/01/20 15:07:21;;;;;;;3.17;1.65;;;;;;;;;;5085762;28;20028;-46